sensor_id;sensor_type;location;lat;lon;timestamp;temperature;humidity
12922;DHT22;6528;48.086;16.282;2023-03-29T00:00:01;21.50;1.00
12922;DHT22;6528;48.086;16.282;2023-03-29T00:02:33;21.50;1.00
12922;DHT22;6528;48.086;16.282;2023-03-29T00:05:00;21.50;1.00
12922;DHT22;6528;48.086;16.282;2023-03-29T00:07:28;21.50;1.00
12922;DHT22;6528;48.086;16.282;2023-03-29T00:09:55;21.50;1.00
12922;DHT22;6528;48.086;16.282;2023-03-29T00:12:23;21.50;1.00
12922;DHT22;6528;48.086;16.282;2023-03-29T00:14:50;21.50;1.00
12922;DHT22;6528;48.086;16.282;2023-03-29T00:17:17;21.40;1.00
12922;DHT22;6528;48.086;16.282;2023-03-29T00:19:44;21.40;1.00
12922;DHT22;6528;48.086;16.282;2023-03-29T00:22:13;21.40;1.00
12922;DHT22;6528;48.086;16.282;2023-03-29T00:24:40;21.40;1.00
12922;DHT22;6528;48.086;16.282;2023-03-29T00:27:07;21.40;1.00
12922;DHT22;6528;48.086;16.282;2023-03-29T00:29:34;21.40;1.00
12922;DHT22;6528;48.086;16.282;2023-03-29T00:32:01;21.40;1.00
12922;DHT22;6528;48.086;16.282;2023-03-29T00:34:27;21.40;1.00
12922;DHT22;6528;48.086;16.282;2023-03-29T00:36:57;21.40;1.00
12922;DHT22;6528;48.086;16.282;2023-03-29T00:39:24;21.40;1.00
12922;DHT22;6528;48.086;16.282;2023-03-29T00:41:52;21.40;1.00
12922;DHT22;6528;48.086;16.282;2023-03-29T00:44:51;21.40;1.00
12922;DHT22;6528;48.086;16.282;2023-03-29T00:47:44;21.40;1.00
12922;DHT22;6528;48.086;16.282;2023-03-29T00:50:22;21.30;1.00
12922;DHT22;6528;48.086;16.282;2023-03-29T00:52:58;21.30;1.00
12922;DHT22;6528;48.086;16.282;2023-03-29T00:55:31;21.30;1.00
12922;DHT22;6528;48.086;16.282;2023-03-29T00:57:59;21.30;1.00
12922;DHT22;6528;48.086;16.282;2023-03-29T01:00:35;21.30;1.00
12922;DHT22;6528;48.086;16.282;2023-03-29T01:03:06;21.30;1.00
12922;DHT22;6528;48.086;16.282;2023-03-29T01:05:42;21.30;1.00
12922;DHT22;6528;48.086;16.282;2023-03-29T01:08:15;21.30;1.00
12922;DHT22;6528;48.086;16.282;2023-03-29T01:10:52;21.30;1.00
12922;DHT22;6528;48.086;16.282;2023-03-29T01:13:26;21.30;1.00
12922;DHT22;6528;48.086;16.282;2023-03-29T01:15:56;21.20;1.00
12922;DHT22;6528;48.086;16.282;2023-03-29T01:18:23;21.20;1.00
12922;DHT22;6528;48.086;16.282;2023-03-29T01:24:16;21.20;1.00
12922;DHT22;6528;48.086;16.282;2023-03-29T01:29:44;21.20;1.00
12922;DHT22;6528;48.086;16.282;2023-03-29T01:32:20;21.20;1.00
12922;DHT22;6528;48.086;16.282;2023-03-29T01:35:04;21.10;1.00
12922;DHT22;6528;48.086;16.282;2023-03-29T01:40:08;21.20;1.00
12922;DHT22;6528;48.086;16.282;2023-03-29T01:42:46;21.10;1.00
12922;DHT22;6528;48.086;16.282;2023-03-29T01:45:21;21.10;1.00
12922;DHT22;6528;48.086;16.282;2023-03-29T01:50:50;21.10;1.00
12922;DHT22;6528;48.086;16.282;2023-03-29T01:56:06;21.10;1.00
12922;DHT22;6528;48.086;16.282;2023-03-29T01:58:38;21.10;1.00
12922;DHT22;6528;48.086;16.282;2023-03-29T02:01:07;21.10;1.00
12922;DHT22;6528;48.086;16.282;2023-03-29T02:03:40;21.10;1.00
12922;DHT22;6528;48.086;16.282;2023-03-29T02:06:13;21.10;1.00
12922;DHT22;6528;48.086;16.282;2023-03-29T02:08:42;21.10;1.00
12922;DHT22;6528;48.086;16.282;2023-03-29T02:11:10;21.10;1.00
12922;DHT22;6528;48.086;16.282;2023-03-29T02:13:37;21.10;1.00
12922;DHT22;6528;48.086;16.282;2023-03-29T02:16:14;21.10;1.00
12922;DHT22;6528;48.086;16.282;2023-03-29T02:18:43;21.00;1.00
12922;DHT22;6528;48.086;16.282;2023-03-29T02:21:35;21.10;1.00
12922;DHT22;6528;48.086;16.282;2023-03-29T02:24:05;21.10;1.00
12922;DHT22;6528;48.086;16.282;2023-03-29T02:26:33;21.10;1.00
12922;DHT22;6528;48.086;16.282;2023-03-29T02:29:00;21.10;1.00
12922;DHT22;6528;48.086;16.282;2023-03-29T02:31:37;21.00;1.00
12922;DHT22;6528;48.086;16.282;2023-03-29T02:34:20;21.10;1.00
12922;DHT22;6528;48.086;16.282;2023-03-29T02:36:53;21.00;1.00
12922;DHT22;6528;48.086;16.282;2023-03-29T02:39:23;21.00;1.00
12922;DHT22;6528;48.086;16.282;2023-03-29T02:41:51;21.00;1.00
12922;DHT22;6528;48.086;16.282;2023-03-29T02:44:27;21.00;1.00
12922;DHT22;6528;48.086;16.282;2023-03-29T02:47:02;21.00;1.00
12922;DHT22;6528;48.086;16.282;2023-03-29T02:49:31;21.00;1.00
12922;DHT22;6528;48.086;16.282;2023-03-29T02:52:05;21.00;1.00
12922;DHT22;6528;48.086;16.282;2023-03-29T02:54:33;21.00;1.00
12922;DHT22;6528;48.086;16.282;2023-03-29T02:57:04;21.00;1.00
12922;DHT22;6528;48.086;16.282;2023-03-29T02:59:34;21.00;1.00
12922;DHT22;6528;48.086;16.282;2023-03-29T03:02:01;21.00;1.00
12922;DHT22;6528;48.086;16.282;2023-03-29T03:04:28;21.00;1.00
12922;DHT22;6528;48.086;16.282;2023-03-29T03:06:56;21.00;1.00
12922;DHT22;6528;48.086;16.282;2023-03-29T03:09:23;21.00;1.00
12922;DHT22;6528;48.086;16.282;2023-03-29T03:11:49;21.00;1.00
12922;DHT22;6528;48.086;16.282;2023-03-29T03:14:16;21.00;1.00
12922;DHT22;6528;48.086;16.282;2023-03-29T03:16:48;21.00;1.00
12922;DHT22;6528;48.086;16.282;2023-03-29T03:19:15;21.00;1.00
12922;DHT22;6528;48.086;16.282;2023-03-29T03:21:42;21.00;1.00
12922;DHT22;6528;48.086;16.282;2023-03-29T03:24:09;21.00;1.00
12922;DHT22;6528;48.086;16.282;2023-03-29T03:26:36;21.00;1.00
12922;DHT22;6528;48.086;16.282;2023-03-29T03:29:04;20.90;1.00
12922;DHT22;6528;48.086;16.282;2023-03-29T03:31:31;21.00;1.00
12922;DHT22;6528;48.086;16.282;2023-03-29T03:33:59;20.90;1.00
12922;DHT22;6528;48.086;16.282;2023-03-29T03:36:25;20.90;1.00
12922;DHT22;6528;48.086;16.282;2023-03-29T03:38:54;20.90;1.00
12922;DHT22;6528;48.086;16.282;2023-03-29T03:41:21;20.90;1.00
12922;DHT22;6528;48.086;16.282;2023-03-29T03:43:48;20.90;1.00
12922;DHT22;6528;48.086;16.282;2023-03-29T03:46:15;20.90;1.00
12922;DHT22;6528;48.086;16.282;2023-03-29T03:48:45;20.90;1.00
12922;DHT22;6528;48.086;16.282;2023-03-29T03:51:12;20.90;1.00
12922;DHT22;6528;48.086;16.282;2023-03-29T03:53:39;20.90;1.00
12922;DHT22;6528;48.086;16.282;2023-03-29T03:56:06;20.90;1.00
12922;DHT22;6528;48.086;16.282;2023-03-29T03:58:37;20.90;1.00
12922;DHT22;6528;48.086;16.282;2023-03-29T04:01:04;20.90;1.00
12922;DHT22;6528;48.086;16.282;2023-03-29T04:03:31;20.90;1.00
12922;DHT22;6528;48.086;16.282;2023-03-29T04:06:02;21.00;1.00
12922;DHT22;6528;48.086;16.282;2023-03-29T04:08:29;21.00;1.00
12922;DHT22;6528;48.086;16.282;2023-03-29T04:10:58;21.00;1.00
12922;DHT22;6528;48.086;16.282;2023-03-29T04:13:26;21.10;1.00
12922;DHT22;6528;48.086;16.282;2023-03-29T04:15:54;21.10;1.00
12922;DHT22;6528;48.086;16.282;2023-03-29T04:18:24;21.10;1.00
12922;DHT22;6528;48.086;16.282;2023-03-29T04:20:51;21.10;1.00
12922;DHT22;6528;48.086;16.282;2023-03-29T04:23:18;21.10;1.00
12922;DHT22;6528;48.086;16.282;2023-03-29T04:25:45;21.20;1.00
12922;DHT22;6528;48.086;16.282;2023-03-29T04:28:12;21.10;1.00
12922;DHT22;6528;48.086;16.282;2023-03-29T04:30:39;21.10;1.00
12922;DHT22;6528;48.086;16.282;2023-03-29T04:33:06;21.20;1.00
12922;DHT22;6528;48.086;16.282;2023-03-29T04:35:33;21.10;1.00
12922;DHT22;6528;48.086;16.282;2023-03-29T04:38:00;21.10;1.00
12922;DHT22;6528;48.086;16.282;2023-03-29T04:40:27;21.10;1.00
12922;DHT22;6528;48.086;16.282;2023-03-29T04:42:54;21.10;1.00
12922;DHT22;6528;48.086;16.282;2023-03-29T04:45:21;21.10;1.00
12922;DHT22;6528;48.086;16.282;2023-03-29T04:47:48;21.20;1.00
12922;DHT22;6528;48.086;16.282;2023-03-29T04:50:15;21.10;1.00
12922;DHT22;6528;48.086;16.282;2023-03-29T04:52:42;21.20;1.00
12922;DHT22;6528;48.086;16.282;2023-03-29T04:55:11;21.20;1.00
12922;DHT22;6528;48.086;16.282;2023-03-29T04:57:38;21.10;1.00
12922;DHT22;6528;48.086;16.282;2023-03-29T05:00:05;21.20;1.00
12922;DHT22;6528;48.086;16.282;2023-03-29T05:02:42;21.20;1.00
12922;DHT22;6528;48.086;16.282;2023-03-29T05:05:09;21.20;1.00
12922;DHT22;6528;48.086;16.282;2023-03-29T05:07:37;21.20;1.00
12922;DHT22;6528;48.086;16.282;2023-03-29T05:10:04;21.20;1.00
12922;DHT22;6528;48.086;16.282;2023-03-29T05:12:32;21.20;1.00
12922;DHT22;6528;48.086;16.282;2023-03-29T05:14:58;21.20;1.00
12922;DHT22;6528;48.086;16.282;2023-03-29T05:17:26;21.20;1.00
12922;DHT22;6528;48.086;16.282;2023-03-29T05:19:53;21.20;1.00
12922;DHT22;6528;48.086;16.282;2023-03-29T05:22:20;21.20;1.00
12922;DHT22;6528;48.086;16.282;2023-03-29T05:24:47;21.20;1.00
12922;DHT22;6528;48.086;16.282;2023-03-29T05:27:14;21.20;1.00
12922;DHT22;6528;48.086;16.282;2023-03-29T05:29:42;21.20;1.00
12922;DHT22;6528;48.086;16.282;2023-03-29T05:32:14;21.20;1.00
12922;DHT22;6528;48.086;16.282;2023-03-29T05:34:41;21.20;1.00
12922;DHT22;6528;48.086;16.282;2023-03-29T05:37:08;21.20;1.00
12922;DHT22;6528;48.086;16.282;2023-03-29T05:39:34;21.20;1.00
12922;DHT22;6528;48.086;16.282;2023-03-29T05:42:03;21.20;1.00
12922;DHT22;6528;48.086;16.282;2023-03-29T05:44:31;21.20;1.00
12922;DHT22;6528;48.086;16.282;2023-03-29T05:46:58;21.20;1.00
12922;DHT22;6528;48.086;16.282;2023-03-29T05:49:25;21.20;1.00
12922;DHT22;6528;48.086;16.282;2023-03-29T05:51:52;21.20;1.00
12922;DHT22;6528;48.086;16.282;2023-03-29T05:54:23;21.20;1.00
12922;DHT22;6528;48.086;16.282;2023-03-29T05:56:50;21.20;1.00
12922;DHT22;6528;48.086;16.282;2023-03-29T05:59:17;21.20;1.00
12922;DHT22;6528;48.086;16.282;2023-03-29T06:01:45;21.20;1.00
12922;DHT22;6528;48.086;16.282;2023-03-29T06:04:14;21.20;1.00
12922;DHT22;6528;48.086;16.282;2023-03-29T06:06:43;21.10;1.00
12922;DHT22;6528;48.086;16.282;2023-03-29T06:09:11;21.20;1.00
12922;DHT22;6528;48.086;16.282;2023-03-29T06:11:38;21.20;1.00
12922;DHT22;6528;48.086;16.282;2023-03-29T06:14:04;21.20;1.00
12922;DHT22;6528;48.086;16.282;2023-03-29T06:16:31;21.20;1.00
12922;DHT22;6528;48.086;16.282;2023-03-29T06:18:58;21.20;1.00
12922;DHT22;6528;48.086;16.282;2023-03-29T06:21:25;21.10;1.00
12922;DHT22;6528;48.086;16.282;2023-03-29T06:23:52;21.20;1.00
12922;DHT22;6528;48.086;16.282;2023-03-29T06:26:19;21.20;1.00
12922;DHT22;6528;48.086;16.282;2023-03-29T06:28:46;21.20;1.00
12922;DHT22;6528;48.086;16.282;2023-03-29T06:31:17;21.10;1.00
12922;DHT22;6528;48.086;16.282;2023-03-29T06:33:45;21.20;1.00
12922;DHT22;6528;48.086;16.282;2023-03-29T06:36:12;21.20;1.00
12922;DHT22;6528;48.086;16.282;2023-03-29T06:38:42;21.20;1.00
12922;DHT22;6528;48.086;16.282;2023-03-29T06:41:11;21.20;1.00
12922;DHT22;6528;48.086;16.282;2023-03-29T06:43:38;21.20;1.00
12922;DHT22;6528;48.086;16.282;2023-03-29T06:46:05;21.20;1.00
12922;DHT22;6528;48.086;16.282;2023-03-29T06:48:38;21.20;1.00
12922;DHT22;6528;48.086;16.282;2023-03-29T06:51:06;21.20;1.00
12922;DHT22;6528;48.086;16.282;2023-03-29T06:53:33;21.20;1.00
12922;DHT22;6528;48.086;16.282;2023-03-29T06:56:00;21.20;1.00
12922;DHT22;6528;48.086;16.282;2023-03-29T06:58:35;21.20;1.00
12922;DHT22;6528;48.086;16.282;2023-03-29T07:01:01;21.20;1.00
12922;DHT22;6528;48.086;16.282;2023-03-29T07:03:30;21.20;1.00
12922;DHT22;6528;48.086;16.282;2023-03-29T07:06:01;21.20;1.00
12922;DHT22;6528;48.086;16.282;2023-03-29T07:08:29;21.20;1.00
12922;DHT22;6528;48.086;16.282;2023-03-29T07:10:57;21.20;1.00
12922;DHT22;6528;48.086;16.282;2023-03-29T07:13:25;21.20;1.00
12922;DHT22;6528;48.086;16.282;2023-03-29T07:15:51;21.20;1.00
12922;DHT22;6528;48.086;16.282;2023-03-29T07:18:19;21.20;1.00
12922;DHT22;6528;48.086;16.282;2023-03-29T07:20:45;21.20;1.00
12922;DHT22;6528;48.086;16.282;2023-03-29T07:23:14;21.20;1.00
12922;DHT22;6528;48.086;16.282;2023-03-29T07:25:40;21.20;1.00
12922;DHT22;6528;48.086;16.282;2023-03-29T07:28:07;21.20;1.00
12922;DHT22;6528;48.086;16.282;2023-03-29T07:30:34;21.20;1.00
12922;DHT22;6528;48.086;16.282;2023-03-29T07:33:02;21.20;1.00
12922;DHT22;6528;48.086;16.282;2023-03-29T07:35:30;21.20;1.00
12922;DHT22;6528;48.086;16.282;2023-03-29T07:37:58;21.30;1.00
12922;DHT22;6528;48.086;16.282;2023-03-29T07:40:25;21.30;1.00
12922;DHT22;6528;48.086;16.282;2023-03-29T07:42:54;21.30;1.00
12922;DHT22;6528;48.086;16.282;2023-03-29T07:45:24;21.30;1.00
12922;DHT22;6528;48.086;16.282;2023-03-29T07:47:55;21.30;1.00
12922;DHT22;6528;48.086;16.282;2023-03-29T07:54:49;21.30;1.00
12922;DHT22;6528;48.086;16.282;2023-03-29T07:57:15;21.30;1.00
12922;DHT22;6528;48.086;16.282;2023-03-29T07:59:42;21.20;1.00
12922;DHT22;6528;48.086;16.282;2023-03-29T08:02:10;21.20;1.00
12922;DHT22;6528;48.086;16.282;2023-03-29T08:04:37;21.30;1.00
12922;DHT22;6528;48.086;16.282;2023-03-29T08:07:04;21.30;1.00
12922;DHT22;6528;48.086;16.282;2023-03-29T08:09:31;21.30;1.00
12922;DHT22;6528;48.086;16.282;2023-03-29T08:11:58;21.30;1.00
12922;DHT22;6528;48.086;16.282;2023-03-29T08:14:25;21.30;1.00
12922;DHT22;6528;48.086;16.282;2023-03-29T08:16:51;21.30;1.00
12922;DHT22;6528;48.086;16.282;2023-03-29T08:19:19;21.30;1.00
12922;DHT22;6528;48.086;16.282;2023-03-29T08:21:45;21.30;1.00
12922;DHT22;6528;48.086;16.282;2023-03-29T08:24:13;21.30;1.00
12922;DHT22;6528;48.086;16.282;2023-03-29T08:26:40;21.30;1.00
12922;DHT22;6528;48.086;16.282;2023-03-29T08:29:07;21.30;1.00
12922;DHT22;6528;48.086;16.282;2023-03-29T08:31:34;21.30;1.00
12922;DHT22;6528;48.086;16.282;2023-03-29T08:34:02;21.30;1.00
12922;DHT22;6528;48.086;16.282;2023-03-29T08:36:29;21.30;1.00
12922;DHT22;6528;48.086;16.282;2023-03-29T08:38:56;21.30;1.00
12922;DHT22;6528;48.086;16.282;2023-03-29T08:49:51;21.30;1.00
12922;DHT22;6528;48.086;16.282;2023-03-29T08:52:44;21.30;1.00
12922;DHT22;6528;48.086;16.282;2023-03-29T08:55:31;21.30;1.00
12922;DHT22;6528;48.086;16.282;2023-03-29T08:58:00;21.30;1.00
12922;DHT22;6528;48.086;16.282;2023-03-29T09:00:41;21.30;1.00
12922;DHT22;6528;48.086;16.282;2023-03-29T09:03:26;21.30;1.00
12922;DHT22;6528;48.086;16.282;2023-03-29T09:06:13;21.30;1.00
12922;DHT22;6528;48.086;16.282;2023-03-29T09:08:46;21.30;1.00
12922;DHT22;6528;48.086;16.282;2023-03-29T09:22:36;21.30;1.00
12922;DHT22;6528;48.086;16.282;2023-03-29T09:30:04;21.30;1.00
12922;DHT22;6528;48.086;16.282;2023-03-29T09:33:02;21.30;1.00
12922;DHT22;6528;48.086;16.282;2023-03-29T09:35:37;21.30;1.00
12922;DHT22;6528;48.086;16.282;2023-03-29T09:38:08;21.30;1.00
12922;DHT22;6528;48.086;16.282;2023-03-29T09:40:45;21.30;1.00
12922;DHT22;6528;48.086;16.282;2023-03-29T09:43:16;21.30;1.00
12922;DHT22;6528;48.086;16.282;2023-03-29T09:45:48;21.30;1.00
12922;DHT22;6528;48.086;16.282;2023-03-29T09:48:17;21.30;1.00
12922;DHT22;6528;48.086;16.282;2023-03-29T09:50:47;21.30;1.00
12922;DHT22;6528;48.086;16.282;2023-03-29T09:53:18;21.30;1.00
12922;DHT22;6528;48.086;16.282;2023-03-29T09:55:48;21.30;1.00
12922;DHT22;6528;48.086;16.282;2023-03-29T09:58:18;21.30;1.00
12922;DHT22;6528;48.086;16.282;2023-03-29T10:00:48;21.30;1.00
12922;DHT22;6528;48.086;16.282;2023-03-29T10:03:33;21.30;1.00
12922;DHT22;6528;48.086;16.282;2023-03-29T10:06:02;21.20;1.00
12922;DHT22;6528;48.086;16.282;2023-03-29T10:08:48;21.30;1.00
12922;DHT22;6528;48.086;16.282;2023-03-29T10:11:31;21.30;1.00
12922;DHT22;6528;48.086;16.282;2023-03-29T10:16:55;21.30;1.00
12922;DHT22;6528;48.086;16.282;2023-03-29T10:19:33;21.30;1.00
12922;DHT22;6528;48.086;16.282;2023-03-29T10:22:07;21.30;1.00
12922;DHT22;6528;48.086;16.282;2023-03-29T10:24:33;21.30;1.00
12922;DHT22;6528;48.086;16.282;2023-03-29T10:27:03;21.30;1.00
12922;DHT22;6528;48.086;16.282;2023-03-29T10:29:40;21.30;1.00
12922;DHT22;6528;48.086;16.282;2023-03-29T10:34:44;21.30;1.00
12922;DHT22;6528;48.086;16.282;2023-03-29T10:37:12;21.30;1.00
12922;DHT22;6528;48.086;16.282;2023-03-29T10:39:40;21.30;1.00
12922;DHT22;6528;48.086;16.282;2023-03-29T10:42:13;21.30;1.00
12922;DHT22;6528;48.086;16.282;2023-03-29T10:44:40;21.30;1.00
12922;DHT22;6528;48.086;16.282;2023-03-29T10:47:15;21.30;1.00
12922;DHT22;6528;48.086;16.282;2023-03-29T10:49:53;21.20;1.00
12922;DHT22;6528;48.086;16.282;2023-03-29T10:52:23;21.30;1.00
12922;DHT22;6528;48.086;16.282;2023-03-29T10:54:51;21.20;1.00
12922;DHT22;6528;48.086;16.282;2023-03-29T11:00:20;21.20;1.00
12922;DHT22;6528;48.086;16.282;2023-03-29T11:06:26;21.20;1.00
12922;DHT22;6528;48.086;16.282;2023-03-29T11:08:57;21.20;1.00
12922;DHT22;6528;48.086;16.282;2023-03-29T11:23:15;21.20;1.00
12922;DHT22;6528;48.086;16.282;2023-03-29T11:26:08;21.20;1.00
12922;DHT22;6528;48.086;16.282;2023-03-29T11:29:10;21.20;1.00
12922;DHT22;6528;48.086;16.282;2023-03-29T11:34:30;21.20;1.00
12922;DHT22;6528;48.086;16.282;2023-03-29T11:37:09;21.20;1.00
12922;DHT22;6528;48.086;16.282;2023-03-29T11:42:25;21.20;1.00
12922;DHT22;6528;48.086;16.282;2023-03-29T11:44:55;21.20;1.00
12922;DHT22;6528;48.086;16.282;2023-03-29T11:47:29;21.20;1.00
12922;DHT22;6528;48.086;16.282;2023-03-29T11:50:02;21.20;1.00
12922;DHT22;6528;48.086;16.282;2023-03-29T11:53:07;21.20;1.00
12922;DHT22;6528;48.086;16.282;2023-03-29T11:55:38;21.20;1.00
12922;DHT22;6528;48.086;16.282;2023-03-29T11:58:17;21.20;1.00
12922;DHT22;6528;48.086;16.282;2023-03-29T12:06:19;21.20;1.00
12922;DHT22;6528;48.086;16.282;2023-03-29T12:08:56;21.20;1.00
12922;DHT22;6528;48.086;16.282;2023-03-29T12:11:39;21.20;1.00
12922;DHT22;6528;48.086;16.282;2023-03-29T12:14:15;21.20;1.00
12922;DHT22;6528;48.086;16.282;2023-03-29T12:17:01;21.20;1.00
12922;DHT22;6528;48.086;16.282;2023-03-29T12:19:30;21.10;1.00
12922;DHT22;6528;48.086;16.282;2023-03-29T12:21:59;21.20;1.00
12922;DHT22;6528;48.086;16.282;2023-03-29T12:24:30;21.20;1.00
12922;DHT22;6528;48.086;16.282;2023-03-29T12:38:24;21.20;1.00
12922;DHT22;6528;48.086;16.282;2023-03-29T12:40:59;21.10;1.00
12922;DHT22;6528;48.086;16.282;2023-03-29T12:43:38;21.10;1.00
12922;DHT22;6528;48.086;16.282;2023-03-29T12:48:46;21.10;1.00
12922;DHT22;6528;48.086;16.282;2023-03-29T12:51:31;21.10;1.00
12922;DHT22;6528;48.086;16.282;2023-03-29T12:54:23;21.10;1.00
12922;DHT22;6528;48.086;16.282;2023-03-29T12:56:56;21.10;1.00
12922;DHT22;6528;48.086;16.282;2023-03-29T12:59:42;21.10;1.00
12922;DHT22;6528;48.086;16.282;2023-03-29T13:09:51;21.10;1.00
12922;DHT22;6528;48.086;16.282;2023-03-29T13:15:05;21.10;1.00
12922;DHT22;6528;48.086;16.282;2023-03-29T13:17:57;21.10;1.00
12922;DHT22;6528;48.086;16.282;2023-03-29T13:20:45;21.10;1.00
12922;DHT22;6528;48.086;16.282;2023-03-29T13:23:32;21.10;1.00
12922;DHT22;6528;48.086;16.282;2023-03-29T13:29:02;21.10;1.00
12922;DHT22;6528;48.086;16.282;2023-03-29T13:31:58;21.10;1.00
12922;DHT22;6528;48.086;16.282;2023-03-29T13:34:51;21.10;1.00
12922;DHT22;6528;48.086;16.282;2023-03-29T13:37:46;21.10;1.00
12922;DHT22;6528;48.086;16.282;2023-03-29T13:45:50;21.10;1.00
12922;DHT22;6528;48.086;16.282;2023-03-29T13:51:26;21.00;1.00
12922;DHT22;6528;48.086;16.282;2023-03-29T13:53:57;21.00;1.00
12922;DHT22;6528;48.086;16.282;2023-03-29T13:56:35;21.00;1.00
12922;DHT22;6528;48.086;16.282;2023-03-29T13:59:11;21.00;1.00
12922;DHT22;6528;48.086;16.282;2023-03-29T14:01:43;21.00;1.00
12922;DHT22;6528;48.086;16.282;2023-03-29T14:04:20;21.00;1.00
12922;DHT22;6528;48.086;16.282;2023-03-29T14:06:51;21.00;1.00
12922;DHT22;6528;48.086;16.282;2023-03-29T14:09:22;21.00;1.00
12922;DHT22;6528;48.086;16.282;2023-03-29T14:11:51;21.00;1.00
12922;DHT22;6528;48.086;16.282;2023-03-29T14:14:22;21.00;1.00
12922;DHT22;6528;48.086;16.282;2023-03-29T14:16:53;21.00;1.00
12922;DHT22;6528;48.086;16.282;2023-03-29T14:19:30;21.00;1.00
12922;DHT22;6528;48.086;16.282;2023-03-29T14:22:00;21.00;1.00
12922;DHT22;6528;48.086;16.282;2023-03-29T14:24:36;21.00;1.00
12922;DHT22;6528;48.086;16.282;2023-03-29T14:27:05;21.00;1.00
12922;DHT22;6528;48.086;16.282;2023-03-29T14:29:33;21.00;1.00
12922;DHT22;6528;48.086;16.282;2023-03-29T14:32:09;21.00;1.00
12922;DHT22;6528;48.086;16.282;2023-03-29T14:34:37;21.00;1.00
12922;DHT22;6528;48.086;16.282;2023-03-29T14:37:05;21.00;1.00
12922;DHT22;6528;48.086;16.282;2023-03-29T14:39:34;21.00;1.00
12922;DHT22;6528;48.086;16.282;2023-03-29T14:42:03;21.00;1.00
12922;DHT22;6528;48.086;16.282;2023-03-29T14:44:35;21.00;1.00
12922;DHT22;6528;48.086;16.282;2023-03-29T14:47:02;21.00;1.00
12922;DHT22;6528;48.086;16.282;2023-03-29T14:49:31;21.00;1.00
12922;DHT22;6528;48.086;16.282;2023-03-29T14:51:58;21.00;1.00
12922;DHT22;6528;48.086;16.282;2023-03-29T14:54:28;21.00;1.00
12922;DHT22;6528;48.086;16.282;2023-03-29T14:56:55;21.00;1.00
12922;DHT22;6528;48.086;16.282;2023-03-29T14:59:26;20.90;1.00
12922;DHT22;6528;48.086;16.282;2023-03-29T15:01:54;21.00;1.00
12922;DHT22;6528;48.086;16.282;2023-03-29T15:04:20;21.00;1.00
12922;DHT22;6528;48.086;16.282;2023-03-29T15:06:47;21.00;1.00
12922;DHT22;6528;48.086;16.282;2023-03-29T15:09:19;21.00;1.00
12922;DHT22;6528;48.086;16.282;2023-03-29T15:11:53;21.00;1.00
12922;DHT22;6528;48.086;16.282;2023-03-29T15:14:21;21.00;1.00
12922;DHT22;6528;48.086;16.282;2023-03-29T15:16:50;20.90;1.00
12922;DHT22;6528;48.086;16.282;2023-03-29T15:19:20;20.90;1.00
12922;DHT22;6528;48.086;16.282;2023-03-29T15:21:49;20.90;1.00
12922;DHT22;6528;48.086;16.282;2023-03-29T15:24:28;20.90;1.00
12922;DHT22;6528;48.086;16.282;2023-03-29T15:27:12;20.90;1.00
12922;DHT22;6528;48.086;16.282;2023-03-29T15:29:41;20.90;1.00
12922;DHT22;6528;48.086;16.282;2023-03-29T15:32:18;20.90;1.00
12922;DHT22;6528;48.086;16.282;2023-03-29T15:34:45;20.90;1.00
12922;DHT22;6528;48.086;16.282;2023-03-29T15:37:13;20.90;1.00
12922;DHT22;6528;48.086;16.282;2023-03-29T15:39:42;20.90;1.00
12922;DHT22;6528;48.086;16.282;2023-03-29T15:42:10;20.90;1.00
12922;DHT22;6528;48.086;16.282;2023-03-29T15:44:37;20.90;1.00
12922;DHT22;6528;48.086;16.282;2023-03-29T15:47:09;20.90;1.00
12922;DHT22;6528;48.086;16.282;2023-03-29T15:49:36;20.90;1.00
12922;DHT22;6528;48.086;16.282;2023-03-29T15:52:03;20.90;1.00
12922;DHT22;6528;48.086;16.282;2023-03-29T15:54:30;20.90;1.00
12922;DHT22;6528;48.086;16.282;2023-03-29T15:57:03;20.90;1.00
12922;DHT22;6528;48.086;16.282;2023-03-29T15:59:31;20.90;1.00
12922;DHT22;6528;48.086;16.282;2023-03-29T16:01:58;20.80;1.00
12922;DHT22;6528;48.086;16.282;2023-03-29T16:04:25;20.80;1.00
12922;DHT22;6528;48.086;16.282;2023-03-29T16:06:53;20.80;1.00
12922;DHT22;6528;48.086;16.282;2023-03-29T16:09:21;20.90;1.00
12922;DHT22;6528;48.086;16.282;2023-03-29T16:11:48;20.90;1.00
12922;DHT22;6528;48.086;16.282;2023-03-29T16:14:28;20.80;1.00
12922;DHT22;6528;48.086;16.282;2023-03-29T16:16:58;20.90;1.00
12922;DHT22;6528;48.086;16.282;2023-03-29T16:19:27;20.90;1.00
12922;DHT22;6528;48.086;16.282;2023-03-29T16:21:54;20.90;1.00
12922;DHT22;6528;48.086;16.282;2023-03-29T16:24:26;20.90;1.00
12922;DHT22;6528;48.086;16.282;2023-03-29T16:26:55;20.90;1.00
12922;DHT22;6528;48.086;16.282;2023-03-29T16:29:23;20.80;1.00
12922;DHT22;6528;48.086;16.282;2023-03-29T16:31:50;20.90;1.00
12922;DHT22;6528;48.086;16.282;2023-03-29T16:34:19;20.80;1.00
12922;DHT22;6528;48.086;16.282;2023-03-29T16:36:46;20.80;1.00
12922;DHT22;6528;48.086;16.282;2023-03-29T16:39:15;20.90;1.00
12922;DHT22;6528;48.086;16.282;2023-03-29T16:41:43;20.80;1.00
12922;DHT22;6528;48.086;16.282;2023-03-29T16:44:19;20.90;1.00
12922;DHT22;6528;48.086;16.282;2023-03-29T16:46:49;20.80;1.00
12922;DHT22;6528;48.086;16.282;2023-03-29T16:49:19;20.90;1.00
12922;DHT22;6528;48.086;16.282;2023-03-29T16:51:46;20.80;1.00
12922;DHT22;6528;48.086;16.282;2023-03-29T16:54:14;20.80;1.00
12922;DHT22;6528;48.086;16.282;2023-03-29T16:56:42;20.80;1.00
12922;DHT22;6528;48.086;16.282;2023-03-29T16:59:09;20.80;1.00
12922;DHT22;6528;48.086;16.282;2023-03-29T17:01:37;20.80;1.00
12922;DHT22;6528;48.086;16.282;2023-03-29T17:04:06;20.80;1.00
12922;DHT22;6528;48.086;16.282;2023-03-29T17:06:33;20.80;1.00
12922;DHT22;6528;48.086;16.282;2023-03-29T17:09:00;20.90;1.00
12922;DHT22;6528;48.086;16.282;2023-03-29T17:11:27;20.80;1.00
12922;DHT22;6528;48.086;16.282;2023-03-29T17:13:54;20.80;1.00
12922;DHT22;6528;48.086;16.282;2023-03-29T17:16:21;20.80;1.00
12922;DHT22;6528;48.086;16.282;2023-03-29T17:18:49;20.80;1.00
12922;DHT22;6528;48.086;16.282;2023-03-29T17:21:16;20.80;1.00
12922;DHT22;6528;48.086;16.282;2023-03-29T17:23:43;20.80;1.00
12922;DHT22;6528;48.086;16.282;2023-03-29T17:26:09;20.80;1.00
12922;DHT22;6528;48.086;16.282;2023-03-29T17:28:37;20.80;1.00
12922;DHT22;6528;48.086;16.282;2023-03-29T17:31:05;20.80;1.00
12922;DHT22;6528;48.086;16.282;2023-03-29T17:33:35;20.80;1.00
12922;DHT22;6528;48.086;16.282;2023-03-29T17:36:04;20.80;1.00
12922;DHT22;6528;48.086;16.282;2023-03-29T17:38:31;20.80;1.00
12922;DHT22;6528;48.086;16.282;2023-03-29T17:41:00;20.80;1.00
12922;DHT22;6528;48.086;16.282;2023-03-29T17:43:28;20.80;1.00
12922;DHT22;6528;48.086;16.282;2023-03-29T17:45:55;20.80;1.00
12922;DHT22;6528;48.086;16.282;2023-03-29T17:48:22;20.80;1.00
12922;DHT22;6528;48.086;16.282;2023-03-29T17:50:50;20.80;1.00
12922;DHT22;6528;48.086;16.282;2023-03-29T17:53:17;20.80;1.00
12922;DHT22;6528;48.086;16.282;2023-03-29T17:55:44;20.80;1.00
12922;DHT22;6528;48.086;16.282;2023-03-29T17:58:11;20.80;1.00
12922;DHT22;6528;48.086;16.282;2023-03-29T18:00:38;20.80;1.00